Time;durP1;ratioP1;P1;durP2;ratioP2;P2;SDS_P1;SDS_P2;PMS_P1;PMS_P2;Temp;Humidity;BMP_temperature;BMP_pressure;BME280_temperature;BME280_humidity;BME280_pressure;Samples;Min_cycle;Max_cycle;Signal;HPM_P1;HPM_P2
2023/05/01 00:02:13;;;;;;;11.70;6.23;;;8.60;1.00;;;;;;5008372;28;20480;-84
2023/05/01 00:04:40;;;;;;;10.93;6.80;;;8.60;1.00;;;;;;5009716;28;21315;-84
2023/05/01 00:07:07;;;;;;;29.47;19.77;;;8.60;1.00;;;;;;5014037;28;20482;-84
2023/05/01 00:09:35;;;;;;;11.43;6.93;;;8.60;1.00;;;;;;5010243;28;20684;-83
2023/05/01 00:12:03;;;;;;;11.80;7.77;;;8.60;1.00;;;;;;5006821;28;20461;-83
2023/05/01 00:14:30;;;;;;;11.77;7.80;;;8.60;1.00;;;;;;5011299;28;21313;-83
2023/05/01 00:16:57;;;;;;;12.67;7.30;;;8.60;1.00;;;;;;5008772;28;20470;-82
2023/05/01 00:19:24;;;;;;;10.83;6.70;;;8.60;1.00;;;;;;5008029;28;20462;-86
2023/05/01 00:21:51;;;;;;;12.17;8.70;;;8.60;1.00;;;;;;5011840;28;20477;-83
2023/05/01 00:24:20;;;;;;;13.70;9.03;;;8.60;1.00;;;;;;5013498;28;20505;-84
2023/05/01 00:26:50;;;;;;;11.20;9.33;;;8.60;1.00;;;;;;5012579;28;20453;-84
2023/05/01 00:29:17;;;;;;;12.23;8.20;;;8.60;1.00;;;;;;5011494;28;20513;-83
2023/05/01 00:31:44;;;;;;;11.80;6.77;;;8.60;1.00;;;;;;5010162;28;20491;-82
2023/05/01 00:34:11;;;;;;;8.30;6.70;;;8.60;1.00;;;;;;5009185;28;20528;-84
2023/05/01 00:36:38;;;;;;;9.93;6.10;;;8.50;1.00;;;;;;5014089;28;21291;-85
2023/05/01 00:39:06;;;;;;;10.33;5.80;;;8.50;1.00;;;;;;5012460;28;21076;-84
2023/05/01 00:41:34;;;;;;;10.97;6.23;;;8.50;1.00;;;;;;5004372;28;20861;-83
2023/05/01 00:44:03;;;;;;;11.67;7.00;;;8.40;1.00;;;;;;5010949;28;21413;-83
2023/05/01 00:46:33;;;;;;;12.07;6.63;;;8.30;1.00;;;;;;5008670;28;20477;-83
2023/05/01 00:49:00;;;;;;;10.10;5.73;;;8.30;1.00;;;;;;5010155;28;20454;-84
2023/05/01 00:51:30;;;;;;;12.23;6.93;;;8.30;1.00;;;;;;5011049;28;20450;-84
2023/05/01 00:54:02;;;;;;;13.97;7.93;;;8.30;1.00;;;;;;5012951;28;20541;-84
2023/05/01 00:56:31;;;;;;;12.97;7.90;;;8.20;1.00;;;;;;5008956;28;20503;-83
2023/05/01 00:59:00;;;;;;;15.50;6.97;;;8.20;1.00;;;;;;5007855;28;21139;-84
2023/05/01 01:01:29;;;;;;;9.57;6.37;;;8.20;1.00;;;;;;5008654;28;20479;-84
2023/05/01 01:03:56;;;;;;;11.40;6.70;;;8.20;1.00;;;;;;4995383;28;20477;-83
2023/05/01 01:06:35;;;;;;;9.40;6.60;;;8.10;1.00;;;;;;4995393;28;20501;-83
2023/05/01 01:09:17;;;;;;;12.70;6.07;;;8.00;1.00;;;;;;5009422;28;20462;-84
2023/05/01 01:11:54;;;;;;;19.60;11.27;;;7.90;1.00;;;;;;5006286;28;20460;-83
2023/05/01 01:14:32;;;;;;;15.20;8.77;;;7.80;1.00;;;;;;5009364;28;20435;-83
2023/05/01 01:17:10;;;;;;;10.87;6.63;;;7.80;1.00;;;;;;5010707;28;20520;-85
2023/05/01 01:20:12;;;;;;;13.97;9.57;;;7.80;1.00;;;;;;5011239;28;20536;-84
2023/05/01 01:22:43;;;;;;;14.43;8.37;;;7.80;1.00;;;;;;5009606;28;20461;-84
2023/05/01 01:25:33;;;;;;;13.10;7.70;;;7.80;1.00;;;;;;5012198;28;20490;-84
2023/05/01 01:28:25;;;;;;;13.80;7.30;;;7.60;1.00;;;;;;5014566;28;20537;-84
2023/05/01 01:31:11;;;;;;;13.47;7.20;;;7.60;1.00;;;;;;5012487;28;21032;-84
2023/05/01 01:34:01;;;;;;;12.27;8.00;;;7.60;1.00;;;;;;4992299;28;21788;-83
2023/05/01 01:36:39;;;;;;;12.17;6.63;;;7.60;1.00;;;;;;5013108;28;21008;-85
2023/05/01 01:39:11;;;;;;;10.20;7.40;;;7.50;1.00;;;;;;5016919;28;20522;-85
2023/05/01 01:41:40;;;;;;;11.50;7.43;;;7.50;1.00;;;;;;5014712;28;20461;-83
2023/05/01 01:44:12;;;;;;;9.87;6.80;;;7.40;1.00;;;;;;5009889;28;20473;-83
2023/05/01 01:46:42;;;;;;;10.00;6.60;;;7.40;1.00;;;;;;5015394;28;20506;-83
2023/05/01 01:49:17;;;;;;;12.33;7.17;;;7.40;1.00;;;;;;5016071;28;20449;-83
2023/05/01 01:51:45;;;;;;;13.30;7.60;;;7.40;1.00;;;;;;5014363;28;20446;-84
2023/05/01 01:54:15;;;;;;;13.60;7.60;;;7.30;1.00;;;;;;5015866;28;20485;-83
2023/05/01 01:56:44;;;;;;;12.37;7.50;;;7.30;1.00;;;;;;5011600;28;20520;-83
2023/05/01 01:59:11;;;;;;;13.33;7.00;;;7.30;1.00;;;;;;5015125;28;20517;-83
2023/05/01 02:01:41;;;;;;;13.90;7.67;;;7.30;1.00;;;;;;5012195;28;20474;-83
2023/05/01 02:04:13;;;;;;;11.30;7.47;;;7.20;1.00;;;;;;5014163;28;20473;-83
2023/05/01 02:06:42;;;;;;;14.67;8.43;;;7.20;1.00;;;;;;5012232;28;20593;-83
2023/05/01 02:09:11;;;;;;;11.40;7.53;;;7.20;1.00;;;;;;5011604;28;20484;-83
2023/05/01 02:11:40;;;;;;;13.70;7.90;;;7.10;1.00;;;;;;5008930;28;20489;-84
2023/05/01 02:14:08;;;;;;;12.10;8.07;;;7.10;1.00;;;;;;5008990;28;20497;-83
2023/05/01 02:16:37;;;;;;;11.60;8.03;;;7.10;1.00;;;;;;5010989;28;21365;-83
2023/05/01 02:19:05;;;;;;;10.93;7.60;;;7.00;1.00;;;;;;5012029;28;20494;-83
2023/05/01 02:21:39;;;;;;;12.67;7.73;;;7.00;1.00;;;;;;5014826;28;20452;-83
2023/05/01 02:24:07;;;;;;;12.10;7.87;;;7.00;1.00;;;;;;5013436;28;20483;-84
2023/05/01 02:26:41;;;;;;;13.07;8.63;;;7.00;1.00;;;;;;5010291;28;20431;-84
2023/05/01 02:29:08;;;;;;;17.48;9.13;;;6.80;1.00;;;;;;5006467;28;20487;-83
2023/05/01 02:31:35;;;;;;;12.50;8.18;;;6.80;1.00;;;;;;5011875;28;20392;-83
2023/05/01 02:34:02;;;;;;;13.03;8.20;;;6.80;1.00;;;;;;5008439;28;21113;-84
2023/05/01 02:36:30;;;;;;;16.83;8.83;;;6.70;1.00;;;;;;5008732;28;20633;-84
2023/05/01 02:38:59;;;;;;;13.93;9.33;;;6.70;1.00;;;;;;5014667;28;20812;-83
2023/05/01 02:41:28;;;;;;;13.57;8.15;;;6.60;1.00;;;;;;5008999;28;21333;-84
2023/05/01 02:44:03;;;;;;;14.70;9.20;;;6.60;1.00;;;;;;5009969;28;20241;-83
2023/05/01 02:46:32;;;;;;;14.30;8.83;;;6.60;1.00;;;;;;5010145;28;20242;-83
2023/05/01 02:49:01;;;;;;;13.30;9.00;;;6.60;1.00;;;;;;5010457;28;20490;-84
2023/05/01 02:51:30;;;;;;;13.40;8.40;;;6.70;1.00;;;;;;5014662;28;20297;-83
2023/05/01 02:53:59;;;;;;;16.33;8.98;;;6.70;1.00;;;;;;5013618;28;20460;-83
2023/05/01 02:56:27;;;;;;;12.07;8.35;;;6.60;1.00;;;;;;5004983;28;20243;-83
2023/05/01 02:58:54;;;;;;;13.57;7.88;;;6.60;1.00;;;;;;5012011;28;20295;-84
2023/05/01 03:01:22;;;;;;;14.18;9.05;;;6.50;1.00;;;;;;5009205;28;20297;-83
2023/05/01 03:03:50;;;;;;;13.23;8.50;;;6.50;1.00;;;;;;5014977;28;20238;-82
2023/05/01 03:06:18;;;;;;;15.55;9.52;;;6.50;1.00;;;;;;5010097;28;20435;-83
2023/05/01 03:08:46;;;;;;;15.95;9.52;;;6.50;1.00;;;;;;5014451;28;20242;-83
2023/05/01 03:11:15;;;;;;;14.02;9.95;;;6.50;1.00;;;;;;5009777;28;21049;-83
2023/05/01 03:13:42;;;;;;;14.80;9.45;;;6.40;1.00;;;;;;5011275;28;20233;-83
2023/05/01 03:16:09;;;;;;;14.02;9.77;;;6.40;1.00;;;;;;5009603;28;20239;-85
2023/05/01 03:18:36;;;;;;;15.30;8.70;;;6.40;1.00;;;;;;5012204;28;21016;-83
2023/05/01 03:21:04;;;;;;;13.20;8.68;;;6.30;1.00;;;;;;5010796;28;20484;-83
2023/05/01 03:23:31;;;;;;;17.13;8.85;;;6.30;1.00;;;;;;5014285;28;20338;-83
2023/05/01 03:25:58;;;;;;;13.68;9.10;;;6.30;1.00;;;;;;5013042;28;20247;-83
2023/05/01 03:28:26;;;;;;;13.77;8.50;;;6.30;1.00;;;;;;5011366;28;20317;-83
2023/05/01 03:30:53;;;;;;;12.32;9.05;;;6.30;1.00;;;;;;5013183;28;20924;-83
2023/05/01 03:33:21;;;;;;;11.20;7.82;;;6.20;1.00;;;;;;5013168;28;20944;-83
2023/05/01 03:35:48;;;;;;;14.10;8.38;;;6.30;1.00;;;;;;5014759;28;20250;-84
2023/05/01 03:38:15;;;;;;;14.65;8.45;;;6.30;1.00;;;;;;5018579;28;20623;-84
2023/05/01 03:40:42;;;;;;;14.35;8.50;;;6.30;1.00;;;;;;5014145;28;20247;-84
2023/05/01 03:43:09;;;;;;;14.95;9.13;;;6.30;1.00;;;;;;5015262;28;20245;-84
2023/05/01 03:45:37;;;;;;;13.30;8.55;;;6.30;1.00;;;;;;5013214;28;20630;-84
2023/05/01 03:48:05;;;;;;;15.68;8.77;;;6.40;1.00;;;;;;5016532;28;20312;-83
2023/05/01 03:50:33;;;;;;;13.75;7.55;;;6.30;1.00;;;;;;5017741;28;20257;-84
2023/05/01 03:53:00;;;;;;;15.10;8.80;;;6.40;1.00;;;;;;5015129;28;20386;-84
2023/05/01 03:55:27;;;;;;;14.77;8.03;;;6.40;1.00;;;;;;5015134;28;20453;-83
2023/05/01 03:57:54;;;;;;;12.65;8.45;;;6.40;1.00;;;;;;5017005;28;20468;-83
2023/05/01 04:00:24;;;;;;;14.85;7.63;;;6.40;1.00;;;;;;5012170;28;20250;-83
2023/05/01 04:02:52;;;;;;;13.63;8.18;;;6.40;1.00;;;;;;5015677;28;20241;-84
2023/05/01 04:05:20;;;;;;;13.47;8.20;;;6.40;1.00;;;;;;5011356;28;20300;-83
2023/05/01 04:07:48;;;;;;;13.90;8.13;;;6.40;1.00;;;;;;5015022;28;20557;-84
2023/05/01 04:10:16;;;;;;;13.27;8.10;;;6.40;1.00;;;;;;5016757;28;20348;-84
2023/05/01 04:12:43;;;;;;;11.63;8.15;;;6.40;1.00;;;;;;5025498;28;20226;-85
2023/05/01 04:15:15;;;;;;;18.47;8.33;;;6.30;1.00;;;;;;5025993;28;20210;-85
2023/05/01 04:17:44;;;;;;;13.52;7.75;;;6.30;1.00;;;;;;5021938;28;20434;-85
2023/05/01 04:20:13;;;;;;;15.73;8.20;;;6.30;1.00;;;;;;5025502;28;20222;-85
2023/05/01 04:22:42;;;;;;;13.75;8.38;;;6.20;1.00;;;;;;5024746;28;20301;-85
2023/05/01 04:25:10;;;;;;;14.90;9.30;;;6.30;1.00;;;;;;5016689;28;20246;-85
2023/05/01 04:27:37;;;;;;;13.27;8.57;;;6.30;1.00;;;;;;5021079;28;20463;-84
2023/05/01 04:30:07;;;;;;;14.00;7.60;;;6.30;1.00;;;;;;5021475;28;20449;-85
2023/05/01 04:32:35;;;;;;;14.35;8.07;;;6.40;1.00;;;;;;5018596;28;20243;-85
2023/05/01 04:35:04;;;;;;;13.20;7.60;;;6.40;1.00;;;;;;5015576;28;20243;-85
2023/05/01 04:37:34;;;;;;;12.80;7.75;;;6.40;1.00;;;;;;5023312;28;20452;-84
2023/05/01 04:40:01;;;;;;;12.45;8.05;;;6.30;1.00;;;;;;5023496;28;20245;-84
2023/05/01 04:42:31;;;;;;;14.18;8.23;;;6.30;1.00;;;;;;5022652;28;20332;-84
2023/05/01 04:45:00;;;;;;;10.82;7.00;;;6.30;1.00;;;;;;5018456;28;20264;-85
2023/05/01 04:47:27;;;;;;;10.95;7.40;;;6.30;1.00;;;;;;5017402;28;20377;-84
2023/05/01 04:49:54;;;;;;;12.13;7.47;;;6.40;1.00;;;;;;5021839;28;20242;-84
2023/05/01 04:52:22;;;;;;;15.30;7.28;;;6.40;1.00;;;;;;5014168;28;20244;-84
2023/05/01 04:54:52;;;;;;;11.43;6.50;;;6.40;1.00;;;;;;5020542;28;20245;-84
2023/05/01 04:57:20;;;;;;;11.77;7.03;;;6.50;1.00;;;;;;5020625;28;20437;-83
2023/05/01 04:59:47;;;;;;;10.90;6.57;;;6.60;1.00;;;;;;5020323;28;20241;-84
2023/05/01 05:02:15;;;;;;;12.07;6.75;;;6.70;1.00;;;;;;5023879;28;20313;-85
2023/05/01 05:04:42;;;;;;;10.83;6.57;;;6.60;1.00;;;;;;5022209;28;20295;-84
2023/05/01 05:07:12;;;;;;;12.10;7.10;;;6.70;1.00;;;;;;5021156;28;20508;-84
2023/05/01 05:09:39;;;;;;;15.48;8.02;;;6.70;1.00;;;;;;5015420;28;20526;-84
2023/05/01 05:12:10;;;;;;;10.90;7.38;;;6.90;1.00;;;;;;5024296;28;20226;-84
2023/05/01 05:14:46;;;;;;;11.68;7.07;;;6.80;1.00;;;;;;5016791;28;20276;-84
2023/05/01 05:17:14;;;;;;;13.48;7.03;;;6.90;1.00;;;;;;5027432;28;20299;-85
2023/05/01 05:19:41;;;;;;;11.50;6.93;;;6.90;1.00;;;;;;4992487;28;20250;-85
2023/05/01 05:22:12;;;;;;;12.33;6.63;;;6.90;1.00;;;;;;5021468;28;20252;-84
2023/05/01 05:24:39;;;;;;;12.53;6.63;;;6.90;1.00;;;;;;5021863;28;21259;-85
2023/05/01 05:27:07;;;;;;;12.83;6.33;;;7.00;1.00;;;;;;5016971;28;20545;-84
2023/05/01 05:29:35;;;;;;;14.73;7.70;;;7.10;1.00;;;;;;5019061;28;20454;-84
2023/05/01 05:32:10;;;;;;;11.80;7.30;;;7.20;1.00;;;;;;5013832;28;20246;-86
2023/05/01 05:34:37;;;;;;;10.23;6.37;;;7.40;1.00;;;;;;5014999;28;20579;-85
2023/05/01 05:37:04;;;;;;;12.40;6.80;;;7.40;1.00;;;;;;5011793;28;20469;-86
2023/05/01 05:39:32;;;;;;;11.67;7.13;;;7.40;1.00;;;;;;5019307;28;20461;-84
2023/05/01 05:42:02;;;;;;;12.53;6.87;;;7.50;1.00;;;;;;5015686;28;20442;-86
2023/05/01 05:44:31;;;;;;;10.30;6.50;;;7.60;1.00;;;;;;5020989;28;20462;-84
2023/05/01 05:46:58;;;;;;;10.97;7.03;;;7.70;1.00;;;;;;5017457;28;20467;-83
2023/05/01 05:49:26;;;;;;;11.13;6.83;;;7.90;1.00;;;;;;5015196;28;20473;-83
2023/05/01 05:51:53;;;;;;;10.67;6.33;;;8.00;1.00;;;;;;5009063;28;20429;-84
2023/05/01 05:54:20;;;;;;;11.80;6.77;;;8.10;1.00;;;;;;5021850;28;20454;-83
2023/05/01 05:56:47;;;;;;;12.03;6.40;;;8.30;1.00;;;;;;5022046;28;20466;-83
2023/05/01 05:59:14;;;;;;;14.20;7.20;;;8.50;1.00;;;;;;5019125;28;20451;-83
2023/05/01 06:01:43;;;;;;;10.40;6.60;;;8.60;1.00;;;;;;5017931;28;20463;-84
2023/05/01 06:04:14;;;;;;;10.73;5.57;;;8.70;1.00;;;;;;5038979;28;20946;-85
2023/05/01 06:06:41;;;;;;;11.63;5.73;;;8.70;1.00;;;;;;5035404;28;20423;-85
2023/05/01 06:09:11;;;;;;;9.93;5.80;;;8.80;1.00;;;;;;5044035;28;20457;-85
2023/05/01 06:11:39;;;;;;;13.60;7.70;;;8.90;1.00;;;;;;4997344;28;20447;-86
2023/05/01 06:14:06;;;;;;;10.67;6.00;;;8.90;1.00;;;;;;5022885;28;20458;-83
2023/05/01 06:16:36;;;;;;;10.13;5.90;;;9.00;1.00;;;;;;5016428;28;20434;-84
2023/05/01 06:19:06;;;;;;;10.00;5.80;;;9.20;1.00;;;;;;5015857;28;20461;-84
2023/05/01 06:21:34;;;;;;;10.93;5.20;;;9.30;1.00;;;;;;5017064;28;20458;-83
2023/05/01 06:24:01;;;;;;;9.10;5.10;;;9.50;1.00;;;;;;5022683;28;20541;-83
2023/05/01 06:26:28;;;;;;;7.73;5.63;;;9.60;1.00;;;;;;5020796;28;20537;-83
2023/05/01 06:28:58;;;;;;;8.83;5.37;;;9.70;1.00;;;;;;5023936;28;20446;-83
2023/05/01 06:31:25;;;;;;;11.40;5.57;;;9.80;1.00;;;;;;5022026;28;20443;-85
2023/05/01 06:33:52;;;;;;;11.13;5.57;;;10.00;1.00;;;;;;5024337;28;20450;-85
2023/05/01 06:36:21;;;;;;;9.10;5.40;;;10.20;1.00;;;;;;5021205;28;20475;-83
2023/05/01 06:38:48;;;;;;;10.33;4.77;;;10.50;1.00;;;;;;5027494;28;20652;-84
2023/05/01 06:41:16;;;;;;;9.73;5.23;;;10.60;1.00;;;;;;5020663;28;20446;-83
2023/05/01 06:43:43;;;;;;;9.20;4.80;;;10.70;1.00;;;;;;5024068;28;20449;-84
2023/05/01 06:46:11;;;;;;;8.43;4.97;;;10.80;1.00;;;;;;5028167;28;20445;-83
2023/05/01 06:48:39;;;;;;;11.10;5.20;;;10.80;1.00;;;;;;5026405;28;20475;-83
2023/05/01 06:51:06;;;;;;;8.73;4.63;;;10.80;1.00;;;;;;5027277;28;20431;-85
2023/05/01 06:53:39;;;;;;;9.10;5.07;;;11.10;1.00;;;;;;5023681;28;20422;-85
2023/05/01 06:56:06;;;;;;;9.63;4.90;;;11.30;1.00;;;;;;5023280;28;20471;-84
2023/05/01 06:58:33;;;;;;;8.97;4.83;;;11.60;1.00;;;;;;5019483;28;20536;-83
2023/05/01 07:01:00;;;;;;;8.93;4.83;;;11.80;1.00;;;;;;5019761;28;20444;-84
2023/05/01 07:03:27;;;;;;;10.23;4.93;;;11.80;1.00;;;;;;5026910;28;20423;-84
2023/05/01 07:05:54;;;;;;;10.03;5.30;;;11.90;1.00;;;;;;5020773;28;20448;-83
2023/05/01 07:08:23;;;;;;;10.30;5.60;;;12.10;1.00;;;;;;5013926;28;20439;-84
2023/05/01 07:10:52;;;;;;;7.87;5.07;;;12.30;1.00;;;;;;5018456;28;20479;-84
2023/05/01 07:13:20;;;;;;;10.67;5.27;;;12.40;1.00;;;;;;5008142;28;20460;-81
2023/05/01 07:15:47;;;;;;;10.33;5.43;;;12.60;1.00;;;;;;5022255;28;20456;-84
2023/05/01 07:18:15;;;;;;;7.67;5.50;;;12.70;1.00;;;;;;5029136;28;20423;-83
2023/05/01 07:20:43;;;;;;;9.33;5.47;;;12.90;1.00;;;;;;5020104;28;20455;-83
2023/05/01 07:23:10;;;;;;;8.67;5.30;;;13.20;1.00;;;;;;5003882;28;20464;-82
2023/05/01 07:25:43;;;;;;;12.60;5.00;;;13.30;1.00;;;;;;5021454;28;20471;-84
2023/05/01 07:28:12;;;;;;;11.40;5.50;;;13.30;1.00;;;;;;5030665;28;20413;-84
2023/05/01 07:30:42;;;;;;;11.97;5.60;;;13.50;1.00;;;;;;5026193;28;20464;-84
2023/05/01 07:33:10;;;;;;;13.67;5.63;;;13.60;1.00;;;;;;5028651;28;20429;-84
2023/05/01 07:35:38;;;;;;;9.27;5.13;;;13.80;1.00;;;;;;5007206;28;20567;-84
2023/05/01 07:38:08;;;;;;;10.10;5.20;;;13.90;1.00;;;;;;5018511;28;20421;-85
2023/05/01 07:40:39;;;;;;;9.03;4.67;;;14.10;1.00;;;;;;5014030;28;20453;-83
2023/05/01 07:43:09;;;;;;;7.60;4.93;;;14.20;1.00;;;;;;5020290;28;20543;-85
2023/05/01 07:45:38;;;;;;;8.53;4.90;;;14.60;1.00;;;;;;5016514;28;20532;-83
2023/05/01 07:48:05;;;;;;;10.50;4.37;;;15.00;1.00;;;;;;5025012;28;20473;-85
2023/05/01 07:50:47;;;;;;;9.57;4.60;;;15.00;1.00;;;;;;5025689;28;20462;-84
2023/05/01 07:56:07;;;;;;;7.10;3.80;;;15.00;1.00;;;;;;5015342;28;20474;-83
2023/05/01 07:58:34;;;;;;;8.67;4.13;;;15.00;1.00;;;;;;5244496;23;21142;-85
2023/05/01 08:01:04;;;;;;;9.33;4.20;;;15.00;1.00;;;;;;4999454;28;20478;-83
2023/05/01 08:03:31;;;;;;;7.10;4.00;;;15.10;1.00;;;;;;5003729;28;20928;-83
2023/05/01 08:06:00;;;;;;;7.07;3.80;;;15.10;1.00;;;;;;5000358;28;20533;-84
2023/05/01 08:08:29;;;;;;;10.63;4.47;;;15.20;1.00;;;;;;4982465;28;20452;-81
2023/05/01 08:10:56;;;;;;;11.03;5.97;;;15.40;1.00;;;;;;5004765;28;21280;-84
2023/05/01 08:13:23;;;;;;;8.23;3.70;;;15.60;1.00;;;;;;5001366;28;20428;-85
2023/05/01 08:15:51;;;;;;;7.57;4.60;;;15.70;1.00;;;;;;5004760;28;20483;-84
2023/05/01 08:18:21;;;;;;;7.77;4.30;;;15.60;1.00;;;;;;5003173;28;20450;-83
2023/05/01 08:20:49;;;;;;;9.50;4.40;;;15.60;1.00;;;;;;5000277;28;20910;-80
2023/05/01 08:23:17;;;;;;;9.87;4.83;;;15.80;1.00;;;;;;4998664;28;20490;-80
2023/05/01 08:25:49;;;;;;;10.33;4.70;;;16.00;1.00;;;;;;4997140;28;20463;-79
2023/05/01 08:28:20;;;;;;;17.70;11.93;;;16.00;1.00;;;;;;4995954;28;20455;-81
2023/05/01 08:30:48;;;;;;;7.63;4.00;;;16.20;1.00;;;;;;4996817;28;20510;-81
2023/05/01 08:33:16;;;;;;;8.60;4.30;;;16.30;1.00;;;;;;5001988;28;20494;-82
2023/05/01 08:35:45;;;;;;;7.70;4.63;;;16.40;1.00;;;;;;4976647;28;20575;-82
2023/05/01 08:38:12;;;;;;;8.40;4.40;;;16.50;1.00;;;;;;4978989;28;20466;-79
2023/05/01 08:40:43;;;;;;;7.47;4.30;;;16.60;1.00;;;;;;4995686;28;20440;-79
2023/05/01 08:43:13;;;;;;;6.97;3.87;;;16.80;1.00;;;;;;4995398;28;20476;-79
2023/05/01 08:45:44;;;;;;;6.30;3.77;;;16.80;1.00;;;;;;4993232;28;20978;-79
2023/05/01 08:48:12;;;;;;;9.30;4.30;;;16.90;1.00;;;;;;4996461;28;20460;-78
2023/05/01 08:50:39;;;;;;;6.87;3.57;;;17.00;1.00;;;;;;4998583;28;20472;-80
2023/05/01 08:53:12;;;;;;;7.20;3.93;;;17.00;1.00;;;;;;4977803;28;20478;-81
2023/05/01 08:55:40;;;;;;;8.90;3.70;;;17.00;1.00;;;;;;4999423;28;20512;-81
2023/05/01 08:58:09;;;;;;;7.90;4.83;;;17.30;1.00;;;;;;4993725;28;20991;-79
2023/05/01 09:00:38;;;;;;;5.90;3.20;;;17.40;1.00;;;;;;5000694;28;20519;-82
2023/05/01 09:03:07;;;;;;;9.67;5.37;;;17.50;1.00;;;;;;4994430;28;20949;-80
2023/05/01 09:05:34;;;;;;;7.70;3.93;;;17.60;1.00;;;;;;4995467;28;20480;-81
2023/05/01 09:08:02;;;;;;;7.25;3.55;;;17.50;1.00;;;;;;4995712;28;20508;-82
2023/05/01 09:10:33;;;;;;;6.93;3.80;;;17.40;1.00;;;;;;4993364;28;20456;-81
2023/05/01 09:13:01;;;;;;;8.03;4.40;;;17.60;1.00;;;;;;4992759;28;20966;-80
2023/05/01 09:15:29;;;;;;;7.47;3.93;;;17.80;1.00;;;;;;4991075;28;21019;-78
2023/05/01 09:17:57;;;;;;;7.47;3.70;;;18.10;1.00;;;;;;4988525;28;20431;-81
2023/05/01 09:20:25;;;;;;;5.13;3.30;;;18.50;1.00;;;;;;4991729;28;20464;-79
2023/05/01 09:22:52;;;;;;;7.23;3.53;;;18.50;1.00;;;;;;4992336;28;20548;-80
2023/05/01 09:25:19;;;;;;;6.30;3.33;;;18.50;1.00;;;;;;4992417;28;20518;-80
2023/05/01 09:27:49;;;;;;;7.10;3.73;;;18.90;1.00;;;;;;4991701;28;20458;-80
2023/05/01 09:30:31;;;;;;;7.90;4.40;;;19.40;1.00;;;;;;4994478;28;21436;-80
2023/05/01 09:33:08;;;;;;;7.50;3.90;;;20.10;1.00;;;;;;4992502;28;20528;-79
2023/05/01 09:35:52;;;;;;;7.20;3.60;;;21.10;1.00;;;;;;4995139;28;20434;-82
2023/05/01 09:38:21;;;;;;;5.87;3.40;;;22.30;1.00;;;;;;4992626;28;20553;-83
2023/05/01 09:40:48;;;;;;;9.77;4.07;;;23.60;1.00;;;;;;4993729;28;20458;-80
2023/05/01 09:43:26;;;;;;;7.10;3.27;;;24.40;1.00;;;;;;4989328;28;20451;-79
2023/05/01 09:46:08;;;;;;;6.67;4.07;;;25.70;1.00;;;;;;4991645;28;20539;-79
2023/05/01 09:48:36;;;;;;;6.67;3.83;;;26.20;1.00;;;;;;4994125;28;20590;-80
2023/05/01 09:51:20;;;;;;;6.20;4.00;;;26.60;1.00;;;;;;4993100;28;20496;-81
2023/05/01 09:53:47;;;;;;;6.83;3.30;;;26.80;1.00;;;;;;4996730;28;20457;-80
2023/05/01 09:56:16;;;;;;;6.50;3.93;;;27.00;1.00;;;;;;4997285;28;20472;-78
2023/05/01 09:58:44;;;;;;;7.50;3.93;;;27.00;1.00;;;;;;4982917;28;20825;-80
2023/05/01 10:01:13;;;;;;;6.90;4.03;;;27.00;1.00;;;;;;5012052;28;20575;-80
2023/05/01 10:03:42;;;;;;;7.30;3.60;;;26.70;1.00;;;;;;5014116;28;20891;-80
2023/05/01 10:06:10;;;;;;;5.77;4.40;;;27.20;1.00;;;;;;5004173;28;20478;-78
2023/05/01 10:08:50;;;;;;;6.23;4.10;;;27.80;1.00;;;;;;5015154;28;20441;-79
2023/05/01 10:11:18;;;;;;;6.30;4.10;;;28.20;1.00;;;;;;5015856;28;20437;-81
2023/05/01 10:14:06;;;;;;;6.43;4.53;;;27.70;1.00;;;;;;5026356;28;20420;-80
2023/05/01 10:16:35;;;;;;;4.73;4.03;;;27.80;1.00;;;;;;5023178;28;20467;-81
2023/05/01 10:19:04;;;;;;;5.87;3.80;;;28.00;1.00;;;;;;5025003;28;20437;-79
2023/05/01 10:21:35;;;;;;;7.50;4.87;;;28.30;1.00;;;;;;5022226;28;20510;-80
2023/05/01 10:24:04;;;;;;;5.33;4.20;;;28.60;1.00;;;;;;5020234;28;20533;-79
2023/05/01 10:26:33;;;;;;;5.70;4.30;;;28.90;1.00;;;;;;5016063;28;20505;-80
2023/05/01 10:29:01;;;;;;;6.33;4.77;;;29.20;1.00;;;;;;5014443;28;20434;-80
2023/05/01 10:31:31;;;;;;;5.20;4.10;;;28.50;1.00;;;;;;5012379;28;20462;-80
2023/05/01 10:34:00;;;;;;;5.27;3.70;;;27.30;1.00;;;;;;5012159;28;20423;-84
2023/05/01 10:36:34;;;;;;;7.23;4.63;;;27.80;1.00;;;;;;5015559;28;20491;-81
2023/05/01 10:39:01;;;;;;;6.57;4.43;;;28.00;1.00;;;;;;5023034;28;20422;-81
2023/05/01 10:42:05;;;;;;;7.20;4.10;;;28.60;1.00;;;;;;5009135;28;20476;-82
2023/05/01 10:44:37;;;;;;;8.17;4.77;;;29.00;1.00;;;;;;4985895;28;20907;-81
2023/05/01 10:47:41;;;;;;;5.17;4.00;;;29.40;1.00;;;;;;5016823;28;20450;-81
2023/05/01 10:50:11;;;;;;;8.17;4.37;;;29.80;1.00;;;;;;5017724;28;20458;-79
2023/05/01 10:53:15;;;;;;;5.83;4.77;;;29.50;1.00;;;;;;5028606;28;20433;-81
2023/05/01 10:55:43;;;;;;;6.40;4.53;;;29.40;1.00;;;;;;5017495;28;20489;-81
2023/05/01 10:58:13;;;;;;;5.57;5.07;;;29.40;1.00;;;;;;4999721;28;20442;-81
2023/05/01 11:00:42;;;;;;;6.40;4.03;;;29.30;1.00;;;;;;5022157;28;20958;-81
2023/05/01 11:03:39;;;;;;;6.30;3.57;;;28.70;1.00;;;;;;5012908;28;21320;-79
2023/05/01 11:06:07;;;;;;;5.47;4.90;;;28.40;1.00;;;;;;5014791;28;20594;-80
2023/05/01 11:08:35;;;;;;;5.73;4.83;;;29.00;1.00;;;;;;5013055;28;21183;-80
2023/05/01 11:11:39;;;;;;;5.93;4.33;;;29.70;1.00;;;;;;5017751;28;20564;-79
2023/05/01 11:14:10;;;;;;;7.57;4.60;;;30.00;1.00;;;;;;5012779;28;20451;-80
2023/05/01 11:16:44;;;;;;;5.63;4.50;;;28.90;1.00;;;;;;5013489;28;20486;-80
2023/05/01 11:19:29;;;;;;;6.30;5.13;;;27.00;1.00;;;;;;5022365;28;20477;-80
2023/05/01 11:21:56;;;;;;;4.97;4.43;;;26.30;1.00;;;;;;5019052;28;20454;-79
2023/05/01 11:24:47;;;;;;;5.60;4.47;;;25.80;1.00;;;;;;5018959;28;20565;-80
2023/05/01 11:27:15;;;;;;;6.63;4.70;;;24.90;1.00;;;;;;5013836;28;20614;-81
2023/05/01 11:29:47;;;;;;;6.20;4.40;;;24.40;1.00;;;;;;5005703;28;20483;-78
2023/05/01 11:32:23;;;;;;;9.00;4.67;;;24.40;1.00;;;;;;5009687;28;20474;-82
2023/05/01 11:34:51;;;;;;;6.20;4.60;;;24.00;1.00;;;;;;5011920;28;20975;-79
2023/05/01 11:37:19;;;;;;;4.97;4.20;;;24.40;1.00;;;;;;5013504;28;20464;-80
2023/05/01 11:39:52;;;;;;;6.20;4.93;;;24.80;1.00;;;;;;5014207;28;20880;-80
2023/05/01 11:42:22;;;;;;;6.50;4.90;;;25.30;1.00;;;;;;5012964;28;20464;-82
2023/05/01 11:45:10;;;;;;;5.47;4.67;;;25.70;1.00;;;;;;5016256;28;20495;-82
2023/05/01 11:47:40;;;;;;;5.30;4.60;;;25.60;1.00;;;;;;5018307;28;20506;-83
2023/05/01 11:50:08;;;;;;;7.00;4.10;;;26.20;1.00;;;;;;5016908;28;20494;-83
2023/05/01 11:52:44;;;;;;;5.53;4.90;;;27.20;1.00;;;;;;5015642;28;20563;-82
2023/05/01 11:55:11;;;;;;;5.77;5.00;;;28.30;1.00;;;;;;5016277;28;20560;-81
2023/05/01 11:57:48;;;;;;;5.20;4.57;;;29.10;1.00;;;;;;5016507;28;20977;-85
2023/05/01 12:00:17;;;;;;;5.03;4.53;;;30.20;1.00;;;;;;5019288;28;20469;-84
2023/05/01 12:03:14;;;;;;;5.83;4.50;;;32.10;1.00;;;;;;5031352;28;21229;-86
2023/05/01 12:05:45;;;;;;;7.60;5.17;;;32.70;1.00;;;;;;5028671;28;21069;-85
2023/05/01 12:08:17;;;;;;;5.33;4.67;;;33.70;1.00;;;;;;5028308;28;20478;-86
2023/05/01 12:10:45;;;;;;;4.70;4.30;;;34.00;1.00;;;;;;5019853;28;20473;-82
2023/05/01 12:13:14;;;;;;;6.20;4.73;;;34.70;1.00;;;;;;5034602;28;20430;-83
2023/05/01 12:15:43;;;;;;;4.43;4.00;;;34.30;1.00;;;;;;5039220;28;20426;-85
2023/05/01 12:18:20;;;;;;;4.90;4.40;;;33.40;1.00;;;;;;5032720;28;20457;-85
2023/05/01 12:20:51;;;;;;;5.30;4.80;;;32.80;1.00;;;;;;5040720;28;21375;-84
2023/05/01 12:25:58;;;;;;;5.00;4.50;;;31.80;1.00;;;;;;5125183;22;20418;-84
2023/05/01 12:28:28;;;;;;;7.90;4.70;;;31.40;1.00;;;;;;5018805;28;20439;-84
2023/05/01 12:31:02;;;;;;;5.33;4.60;;;31.20;1.00;;;;;;5032956;28;20446;-79
2023/05/01 12:33:38;;;;;;;5.70;4.80;;;30.60;1.00;;;;;;5023518;28;20427;-80
2023/05/01 12:36:16;;;;;;;5.20;4.70;;;29.60;1.00;;;;;;5025645;28;20437;-82
2023/05/01 12:38:57;;;;;;;5.33;4.30;;;29.20;1.00;;;;;;5018372;28;20463;-81
2023/05/01 12:41:33;;;;;;;6.20;4.50;;;29.20;1.00;;;;;;5012615;28;20477;-83
2023/05/01 12:44:06;;;;;;;4.63;4.20;;;28.80;1.00;;;;;;5029604;28;20452;-82
2023/05/01 12:46:36;;;;;;;5.50;5.00;;;28.20;1.00;;;;;;5010733;28;20481;-81
2023/05/01 12:49:08;;;;;;;6.37;5.80;;;28.30;1.00;;;;;;5029788;28;20410;-82
2023/05/01 12:51:39;;;;;;;4.90;3.90;;;28.50;1.00;;;;;;5017686;28;20436;-82
2023/05/01 12:54:10;;;;;;;4.27;3.90;;;29.00;1.00;;;;;;5028892;28;20444;-83
2023/05/01 12:56:37;;;;;;;4.83;4.43;;;28.70;1.00;;;;;;5015214;28;20433;-83
2023/05/01 12:59:04;;;;;;;5.73;5.00;;;29.10;1.00;;;;;;5018064;28;20455;-82
2023/05/01 13:01:32;;;;;;;5.17;4.50;;;29.40;1.00;;;;;;5017971;28;20458;-83
2023/05/01 13:04:02;;;;;;;5.87;4.80;;;29.40;1.00;;;;;;5019124;28;20462;-81
2023/05/01 13:06:43;;;;;;;6.20;4.97;;;29.60;1.00;;;;;;5014021;28;20457;-81
2023/05/01 13:09:15;;;;;;;6.53;5.33;;;29.40;1.00;;;;;;5028844;28;20520;-80
2023/05/01 13:12:04;;;;;;;7.00;5.50;;;29.70;1.00;;;;;;5022497;28;20501;-83
2023/05/01 13:14:38;;;;;;;5.67;4.67;;;29.60;1.00;;;;;;4989142;28;20447;-81
2023/05/01 13:17:07;;;;;;;5.20;4.33;;;29.50;1.00;;;;;;5018244;28;20509;-82
2023/05/01 13:19:39;;;;;;;6.17;4.27;;;29.20;1.00;;;;;;5023238;28;20403;-82
2023/05/01 13:22:15;;;;;;;9.93;5.07;;;28.90;1.00;;;;;;5015095;28;20467;-80